MiSS Sarah — WDE9595 — position and weather

sailwx.info

Track history (hours):
 
Tides and Currents Weather Stations Pressure Air Temp Water Temp Dewpoint Dewpoint Depression Visibility Wind Speed Wind Dir Waves Ship Positions

MiSS Sarah

Owner: Higman Barge Lines, Inc, Orange, TX. More information available from US FCC via Universal Licensing System and Coast Guard Vessel Documentation Center.

Last reported at 2016-Sep-14 03:22 UTC. Time now 2016-Sep-29 20:29 UTC.
Position N 29°33' W 090°24'.
Warning: this ship's position is 15 days out of date.

Length 24 m; draft 9 m.

Type: Towing. MMSI: 367419040.

Date/timePositionNaut miles runAvg speedWind from/ knotsBaromVisibWave heightAir tempDewpointWater temp
2016-Sep-14 03:22N 29°33' W 090°24'19 3.8
2016-Sep-13 22:33N 29°33' W 090°45'10 4.4
2016-Sep-13 20:22N 29°34' W 090°56'48 5.2
2016-Sep-13 11:16N 29°47' W 091°49'6 3.4
2016-Sep-13 09:33N 29°51' W 091°54'12 5.8
2016-Sep-13 07:33N 29°48' W 092°07'5 5.1
2016-Sep-13 06:34N 29°47' W 092°13'10 4.8
2016-Sep-13 04:34N 29°52' W 092°22'13 6.4
2016-Sep-13 02:33N 29°55' W 092°37'28 5.7
2016-Sep-12 21:33N 29°56' W 093°09'8 3.8
2016-Sep-12 19:33N 30°02' W 093°15'5 2.4
2016-Sep-12 17:34N 30°06' W 093°18'2 0.6
2016-Sep-12 14:33N 30°05' W 093°20'1 1.1
2016-Sep-12 13:33N 30°04' W 093°21'1 0.7
2016-Sep-12 12:34N 30°04' W 093°21'5 4.8
2016-Sep-12 11:33N 30°04' W 093°27'  
2016-Sep-06 08:33N 29°47' W 095°05'0 0.0
2016-Sep-06 07:33N 29°47' W 095°05'0 0.0
2016-Sep-06 06:33N 29°47' W 095°05'0 0.0
2016-Sep-06 04:33N 29°47' W 095°05'0 0.0
2016-Sep-06 03:33N 29°47' W 095°05'0 0.0
2016-Sep-06 02:33N 29°47' W 095°05'0 0.0
2016-Sep-06 01:33N 29°47' W 095°05'0 0.0
2016-Sep-05 19:33N 29°47' W 095°05'0 0.0
2016-Sep-05 18:33N 29°47' W 095°05'0 0.0
2016-Sep-05 17:33N 29°47' W 095°05'0 0.3
2016-Sep-05 16:33N 29°46' W 095°05'  
Track history (hours):
 
Tides and Currents Weather Stations Pressure Air Temp Water Temp Dewpoint Dewpoint Depression Visibility Wind Speed Wind Dir Waves Ship Positions

MiSS Sarah

Owner: Higman Barge Lines, Inc, Orange, TX. More information available from US FCC via Universal Licensing System and Coast Guard Vessel Documentation Center.

Last reported at 2016-Sep-14 03:22 UTC. Time now 2016-Sep-29 20:29 UTC.
Position N 29°33' W 090°24'.
Warning: this ship's position is 15 days out of date.

Length 24 m; draft 9 m.

Type: Towing. MMSI: 367419040.

Date/timePositionNaut miles runAvg speedWind from/ knotsBaromVisibWave heightAir tempDewpointWater temp
2016-Sep-14 03:22N 29°33' W 090°24'19 3.8
2016-Sep-13 22:33N 29°33' W 090°45'10 4.4
2016-Sep-13 20:22N 29°34' W 090°56'48 5.2
2016-Sep-13 11:16N 29°47' W 091°49'6 3.4
2016-Sep-13 09:33N 29°51' W 091°54'12 5.8
2016-Sep-13 07:33N 29°48' W 092°07'5 5.1
2016-Sep-13 06:34N 29°47' W 092°13'10 4.8
2016-Sep-13 04:34N 29°52' W 092°22'13 6.4
2016-Sep-13 02:33N 29°55' W 092°37'28 5.7
2016-Sep-12 21:33N 29°56' W 093°09'8 3.8
2016-Sep-12 19:33N 30°02' W 093°15'5 2.4
2016-Sep-12 17:34N 30°06' W 093°18'2 0.6
2016-Sep-12 14:33N 30°05' W 093°20'1 1.1
2016-Sep-12 13:33N 30°04' W 093°21'1 0.7
2016-Sep-12 12:34N 30°04' W 093°21'5 4.8
2016-Sep-12 11:33N 30°04' W 093°27'  
2016-Sep-06 08:33N 29°47' W 095°05'0 0.0
2016-Sep-06 07:33N 29°47' W 095°05'0 0.0
2016-Sep-06 06:33N 29°47' W 095°05'0 0.0
2016-Sep-06 04:33N 29°47' W 095°05'0 0.0
2016-Sep-06 03:33N 29°47' W 095°05'0 0.0
2016-Sep-06 02:33N 29°47' W 095°05'0 0.0
2016-Sep-06 01:33N 29°47' W 095°05'0 0.0
2016-Sep-05 19:33N 29°47' W 095°05'0 0.0
2016-Sep-05 18:33N 29°47' W 095°05'0 0.0
2016-Sep-05 17:33N 29°47' W 095°05'0 0.3
2016-Sep-05 16:33N 29°46' W 095°05'  

Dump ship's entire track history